Time;durP1;ratioP1;P1;durP2;ratioP2;P2;SDS_P1;SDS_P2;PMS_P1;PMS_P2;Temp;Humidity;BMP_temperature;BMP_pressure;BME280_temperature;BME280_humidity;BME280_pressure;Samples;Min_cycle;Max_cycle;Signal;HPM_P1;HPM_P2
2022/06/17 00:02:03;;;;;;;12.13;8.15;;;;;;;11.95;100.00;163689.16;5070727;28;20044;-59
2022/06/17 00:04:28;;;;;;;8.30;7.50;;;;;;;11.93;100.00;163683.81;5072690;28;20360;-59
2022/06/17 00:07:01;;;;;;;13.82;9.20;;;;;;;11.92;100.00;163681.09;5070903;28;20036;-59
2022/06/17 00:09:30;;;;;;;14.18;8.63;;;;;;;11.88;100.00;163671.63;5057707;28;20633;-59
2022/06/17 00:11:55;;;;;;;19.17;10.20;;;;;;;11.85;100.00;163662.19;5070987;28;20067;-59
2022/06/17 00:14:32;;;;;;;10.25;8.00;;;;;;;11.83;100.00;163656.75;5072033;28;20050;-59
2022/06/17 00:17:07;;;;;;;9.20;8.30;;;;;;;11.80;100.00;163648.69;5070394;28;20045;-60
2022/06/17 00:19:32;;;;;;;10.55;9.50;;;;;;;11.77;100.00;163640.56;5072562;28;20029;-60
2022/06/17 00:21:58;;;;;;;13.20;9.75;;;;;;;11.73;100.00;163632.44;5069936;28;20122;-60
2022/06/17 00:24:26;;;;;;;13.55;9.23;;;;;;;11.72;100.00;163629.78;5072078;28;20021;-60
2022/06/17 00:26:53;;;;;;;9.65;8.70;;;;;;;11.70;100.00;163624.38;5070314;28;20495;-60
2022/06/17 00:29:21;;;;;;;14.88;10.05;;;;;;;11.70;100.00;163624.38;5067144;28;20132;-60
2022/06/17 00:31:46;;;;;;;10.73;9.00;;;;;;;11.61;100.00;163600.03;5070481;28;20082;-59
2022/06/17 00:34:12;;;;;;;11.15;10.07;;;;;;;11.62;100.00;163602.75;5071170;28;20471;-59
2022/06/17 00:36:39;;;;;;;9.95;8.77;;;;;;;11.56;100.00;163586.53;5070329;28;20044;-59
2022/06/17 00:39:19;;;;;;;26.52;10.20;;;;;;;11.54;100.00;163581.13;5071455;28;20103;-59
2022/06/17 00:41:47;;;;;;;12.98;9.40;;;;;;;11.52;100.00;163575.72;5070351;28;20044;-58
2022/06/17 00:44:26;;;;;;;13.35;9.57;;;;;;;11.47;100.00;163562.22;5071213;28;20031;-58
2022/06/17 00:47:32;;;;;;;12.07;10.38;;;;;;;11.40;100.00;163546.03;5069978;28;20041;-59
2022/06/17 00:50:22;;;;;;;13.25;11.15;;;;;;;11.42;100.00;163550.06;5069655;28;20055;-58
2022/06/17 00:52:59;;;;;;;17.02;10.60;;;;;;;11.43;100.00;163554.09;5070550;28;20062;-58
2022/06/17 00:55:29;;;;;;;10.48;9.45;;;;;;;11.41;100.00;163547.34;5070041;28;20049;-58
2022/06/17 00:57:57;;;;;;;10.07;9.15;;;;;;;11.38;100.00;163539.28;5070683;28;20032;-58
2022/06/17 01:00:25;;;;;;;17.48;10.80;;;;;;;11.33;100.00;163527.13;5070109;28;20567;-58
2022/06/17 01:02:54;;;;;;;11.82;9.95;;;;;;;11.27;100.00;163512.25;5071173;28;20055;-58
2022/06/17 01:05:36;;;;;;;12.52;11.20;;;;;;;11.27;100.00;163510.94;5069744;28;20113;-58
2022/06/17 01:08:14;;;;;;;11.52;9.75;;;;;;;11.25;100.00;163505.50;5070637;28;20166;-58
2022/06/17 01:10:46;;;;;;;11.83;10.17;;;;;;;11.20;100.00;163492.03;5070192;28;20049;-58
2022/06/17 01:13:12;;;;;;;11.15;10.10;;;;;;;11.23;100.00;163500.09;5070989;28;20047;-58
2022/06/17 01:15:40;;;;;;;11.82;10.63;;;;;;;11.22;100.00;163497.38;5069946;28;20033;-58
2022/06/17 01:18:07;;;;;;;12.70;10.90;;;;;;;11.23;100.00;163500.09;5070311;28;20126;-58
2022/06/17 01:20:33;;;;;;;15.48;11.35;;;;;;;11.23;100.00;163501.47;5069221;28;20165;-59
2022/06/17 01:23:04;;;;;;;11.13;10.18;;;;;;;11.24;100.00;163502.81;5070915;28;20039;-59
2022/06/17 01:25:37;;;;;;;13.18;10.52;;;;;;;11.20;100.00;163492.03;5069422;28;20052;-59
2022/06/17 01:28:09;;;;;;;15.45;11.73;;;;;;;11.21;100.00;163494.69;5069777;28;20031;-59
2022/06/17 01:30:44;;;;;;;11.38;10.07;;;;;;;11.24;100.00;163502.81;5069126;28;20388;-59
2022/06/17 01:33:12;;;;;;;11.98;8.35;;;;;;;11.22;100.00;163497.38;5070126;28;20480;-59
2022/06/17 01:35:45;;;;;;;11.63;10.45;;;;;;;11.21;100.00;163494.69;5068765;28;20055;-59
2022/06/17 01:38:12;;;;;;;13.40;11.90;;;;;;;11.20;100.00;163493.34;5070527;28;20025;-59
2022/06/17 01:40:37;;;;;;;14.50;11.57;;;;;;;11.21;100.00;163494.69;5068902;28;20048;-59
2022/06/17 01:43:08;;;;;;;13.95;10.23;;;;;;;11.13;100.00;163473.13;5070483;28;20020;-59
2022/06/17 01:45:38;;;;;;;11.63;10.43;;;;;;;11.12;100.00;163471.75;5069530;28;20044;-59
2022/06/17 01:48:05;;;;;;;12.15;11.00;;;;;;;11.08;100.00;163462.28;5070318;28;20099;-59
2022/06/17 01:50:31;;;;;;;12.40;10.65;;;;;;;10.97;100.00;163432.63;5068818;28;20040;-59
2022/06/17 01:53:09;;;;;;;15.88;11.27;;;;;;;11.00;100.00;163439.34;5070095;28;20033;-59
2022/06/17 01:55:41;;;;;;;12.52;10.77;;;;;;;11.01;100.00;163443.38;5069247;28;20040;-59
2022/06/17 01:58:14;;;;;;;16.75;13.15;;;;;;;10.97;100.00;163432.63;5069693;28;20157;-59
2022/06/17 02:00:42;;;;;;;14.82;11.55;;;;;;;11.00;100.00;163440.69;5069139;28;20473;-59
2022/06/17 02:03:12;;;;;;;17.13;12.25;;;;;;;10.95;100.00;163427.19;5070472;28;20032;-59
2022/06/17 02:05:40;;;;;;;15.98;11.10;;;;;;;10.95;100.00;163427.19;5069119;28;20040;-59
2022/06/17 02:08:05;;;;;;;16.30;12.73;;;;;;;10.94;100.00;163424.50;5069817;28;20103;-59
2022/06/17 02:10:39;;;;;;;13.30;11.13;;;;;;;10.92;100.00;163419.06;5068545;28;20607;-59
2022/06/17 02:13:05;;;;;;;14.52;10.70;;;;;;;10.90;100.00;163413.72;5069761;28;20114;-58
2022/06/17 02:15:31;;;;;;;13.25;10.80;;;;;;;10.89;100.00;163411.00;5069203;28;20036;-58
2022/06/17 02:17:59;;;;;;;11.73;10.63;;;;;;;10.89;100.00;163411.00;5069655;28;20471;-58
2022/06/17 02:20:25;;;;;;;12.40;11.18;;;;;;;10.89;100.00;163412.34;5067980;28;20542;-59
2022/06/17 02:22:51;;;;;;;13.90;12.52;;;;;;;10.86;100.00;163402.88;5070254;28;20025;-59
2022/06/17 02:25:20;;;;;;;12.45;11.15;;;;;;;10.85;100.00;163400.19;5068563;28;20093;-58
2022/06/17 02:27:50;;;;;;;11.15;9.57;;;;;;;10.82;100.00;163392.09;5069356;28;20031;-60
2022/06/17 02:30:17;;;;;;;13.65;12.55;;;;;;;10.83;100.00;163394.81;5068664;28;20040;-59
2022/06/17 02:32:45;;;;;;;13.15;11.77;;;;;;;10.75;100.00;163374.53;5070216;28;20032;-59
2022/06/17 02:35:47;;;;;;;15.93;14.50;;;;;;;10.86;100.00;163402.88;5068325;28;20044;-60
2022/06/17 02:38:15;;;;;;;16.98;14.50;;;;;;;10.86;100.00;163402.88;5070315;28;20020;-59
2022/06/17 02:40:44;;;;;;;14.57;13.23;;;;;;;10.79;100.00;163386.69;5068203;28;20048;-60
2022/06/17 02:43:19;;;;;;;17.17;12.93;;;;;;;10.80;100.00;163388.03;5069383;28;20081;-60
2022/06/17 02:45:51;;;;;;;14.95;13.52;;;;;;;10.78;100.00;163384.00;5058596;28;20044;-59
2022/06/17 02:48:26;;;;;;;14.45;13.00;;;;;;;10.76;100.00;163378.56;5068144;28;20337;-59
2022/06/17 02:50:56;;;;;;;17.52;14.85;;;;;;;10.75;100.00;163375.91;5068169;28;20399;-59
2022/06/17 02:53:28;;;;;;;17.35;14.38;;;;;;;10.75;100.00;163375.91;5069801;28;20070;-59
2022/06/17 02:55:55;;;;;;;15.45;13.40;;;;;;;10.77;100.00;163379.94;5067979;28;20044;-60
2022/06/17 02:59:03;;;;;;;17.60;13.95;;;;;;;10.78;100.00;163384.00;5069676;28;20099;-59
2022/06/17 03:01:32;;;;;;;17.70;13.30;;;;;;;10.79;100.00;163386.69;5068138;28;20443;-59
2022/06/17 03:03:57;;;;;;;19.27;17.30;;;;;;;10.83;100.00;163394.81;5068971;28;20036;-59
2022/06/17 03:06:45;;;;;;;17.80;15.25;;;;;;;10.90;100.00;163413.72;5067820;28;20472;-59
2022/06/17 03:09:24;;;;;;;18.17;16.38;;;;;;;11.01;100.00;163442.06;5069790;28;20379;-60
2022/06/17 03:11:58;;;;;;;19.38;15.55;;;;;;;11.11;100.00;163470.41;5067628;28;20082;-60
2022/06/17 03:14:29;;;;;;;16.75;15.13;;;;;;;11.20;100.00;163492.03;5069411;28;20024;-60
2022/06/17 03:16:59;;;;;;;20.70;18.60;;;;;;;11.27;100.00;163510.94;5070801;28;20037;-60
2022/06/17 03:19:27;;;;;;;20.58;18.60;;;;;;;11.33;100.00;163527.13;5073070;28;20032;-60
2022/06/17 03:21:53;;;;;;;20.45;18.23;;;;;;;11.41;100.00;163548.75;5071457;28;20044;-60
2022/06/17 03:24:25;;;;;;;18.20;16.52;;;;;;;11.56;100.00;163587.88;5072982;28;20033;-59
2022/06/17 03:27:01;;;;;;;19.88;17.35;;;;;;;11.67;100.00;163616.22;5071386;28;20055;-60
2022/06/17 03:29:27;;;;;;;18.13;16.50;;;;;;;11.77;100.00;163640.56;5073012;28;20029;-59
2022/06/17 03:32:00;;;;;;;17.52;16.02;;;;;;;11.89;100.00;163672.97;5071219;28;20045;-59
2022/06/17 03:34:42;;;;;;;18.40;16.58;;;;;;;11.99;100.00;163700.06;5071583;28;20548;-60
2022/06/17 03:37:17;;;;;;;19.70;16.75;;;;;;;12.08;100.00;163721.69;5071278;28;20075;-59
2022/06/17 03:39:48;;;;;;;16.75;14.82;;;;;;;12.16;100.00;163744.63;5072993;28;20020;-59
2022/06/17 03:42:20;;;;;;;18.00;16.35;;;;;;;12.24;100.00;163764.91;5052002;28;20052;-60
2022/06/17 03:45:15;;;;;;;18.85;16.85;;;;;;;12.34;100.00;163791.91;5071416;28;20020;-60
2022/06/17 03:48:10;;;;;;;18.20;14.93;;;;;;;12.43;100.00;163813.53;5070248;28;20071;-60
2022/06/17 03:50:41;;;;;;;16.38;14.88;;;;;;;12.46;100.00;163823.00;5070842;28;20052;-59
2022/06/17 03:53:47;;;;;;;15.95;14.30;;;;;;;12.52;100.00;163839.22;5072167;28;20519;-59
2022/06/17 03:56:18;;;;;;;16.77;15.27;;;;;;;12.54;100.00;163843.28;5065635;28;20072;-59
2022/06/17 03:58:45;;;;;;;16.33;14.82;;;;;;;12.61;100.00;163860.84;5073125;28;20025;-59
2022/06/17 04:01:15;;;;;;;17.73;15.93;;;;;;;12.62;100.00;163864.88;5070780;28;20067;-59
2022/06/17 04:03:46;;;;;;;15.75;14.38;;;;;;;12.61;100.00;163860.84;5071782;28;20077;-59
2022/06/17 04:06:17;;;;;;;17.42;15.68;;;;;;;12.66;100.00;163874.34;5070381;28;20039;-59
2022/06/17 04:09:02;;;;;;;15.35;13.90;;;;;;;12.61;100.00;163860.84;5059110;28;20049;-59
2022/06/17 04:11:34;;;;;;;16.83;14.52;;;;;;;12.52;100.00;163837.88;5070506;28;20605;-62
2022/06/17 04:14:04;;;;;;;16.88;14.93;;;;;;;12.49;100.00;163831.13;5070762;28;20064;-62
2022/06/17 04:16:50;;;;;;;23.08;15.30;;;;;;;12.45;100.00;163820.28;5069948;28;20053;-62
2022/06/17 04:19:19;;;;;;;16.55;14.95;;;;;;;12.41;100.00;163808.13;5071701;28;20044;-62
2022/06/17 04:21:44;;;;;;;17.20;15.25;;;;;;;12.39;100.00;163804.09;5065623;28;20045;-62
2022/06/17 04:24:17;;;;;;;25.20;17.50;;;;;;;12.41;100.00;163808.13;5071233;28;20027;-62
2022/06/17 04:26:45;;;;;;;15.40;13.80;;;;;;;12.50;100.00;163832.47;5069188;28;20051;-62
2022/06/17 04:29:17;;;;;;;18.73;16.80;;;;;;;12.62;100.00;163864.88;5071603;28;20028;-62
2022/06/17 04:31:44;;;;;;;15.75;14.10;;;;;;;12.73;100.00;163893.31;5070147;28;20036;-62
2022/06/17 04:34:16;;;;;;;18.40;16.67;;;;;;;12.80;100.00;163910.84;5071647;28;20039;-62
2022/06/17 04:36:48;;;;;;;20.02;15.68;;;;;;;12.86;100.00;163927.06;5070293;28;20045;-62
2022/06/17 04:39:13;;;;;;;15.30;13.60;;;;;;;12.92;100.00;163941.94;5070672;28;20028;-62
2022/06/17 04:41:41;;;;;;;12.80;11.57;;;;;;;13.00;100.00;163964.91;5056196;28;20131;-62
2022/06/17 04:44:06;;;;;;;18.47;14.37;;;;;;;13.10;100.00;163990.63;5071265;28;20031;-63
2022/06/17 04:46:47;;;;;;;13.80;12.50;;;;;;;13.21;100.00;164019.03;5070080;28;20037;-62
2022/06/17 04:49:17;;;;;;;19.35;15.05;;;;;;;13.32;100.00;164048.75;5070836;28;20129;-62
2022/06/17 04:51:43;;;;;;;15.48;13.63;;;;;;;13.45;100.00;164081.22;5069916;28;20399;-62
2022/06/17 04:54:10;;;;;;;23.65;13.85;;;;;;;13.60;100.00;164121.78;5070709;28;20078;-62
2022/06/17 04:56:40;;;;;;;19.23;14.73;;;;;;;13.81;100.00;164175.94;5069498;28;20617;-62
2022/06/17 04:59:21;;;;;;;17.23;14.25;;;;;;;14.04;100.00;164235.38;5071348;28;20056;-62
2022/06/17 05:01:49;;;;;;;13.95;12.63;;;;;;;14.27;100.00;164297.63;5068516;28;20048;-62
2022/06/17 05:04:14;;;;;;;16.80;15.23;;;;;;;14.50;100.00;164357.16;5071558;28;20511;-60
2022/06/17 05:06:39;;;;;;;14.02;12.63;;;;;;;14.71;100.00;164411.31;5069338;28;20048;-60
2022/06/17 05:09:20;;;;;;;12.82;11.60;;;;;;;14.89;100.00;164460.06;5070861;28;20020;-60
2022/06/17 05:11:49;;;;;;;14.98;10.65;;;;;;;15.08;100.00;164508.75;5069356;28;20059;-60
2022/06/17 05:14:44;;;;;;;14.15;10.35;;;;;;;15.23;100.00;164549.38;5070919;28;20086;-60
2022/06/17 05:17:09;;;;;;;28.17;12.10;;;;;;;15.35;100.00;164579.16;5068539;28;20036;-62
2022/06/17 05:19:34;;;;;;;12.52;11.43;;;;;;;15.36;100.00;164581.88;5071009;28;20029;-60
2022/06/17 05:22:03;;;;;;;17.38;12.93;;;;;;;15.34;100.00;164577.78;5068929;28;20052;-60
2022/06/17 05:24:30;;;;;;;13.15;11.70;;;;;;;15.33;100.00;164575.13;5069817;28;20041;-60
2022/06/17 05:26:57;;;;;;;14.45;11.90;;;;;;;15.27;100.00;164557.50;5069381;28;20075;-60
2022/06/17 05:29:23;;;;;;;12.98;10.95;;;;;;;15.25;100.00;164552.09;5070354;28;20532;-60
2022/06/17 05:31:49;;;;;;;10.98;9.30;;;;;;;15.27;100.00;164557.50;5068717;28;20055;-60
2022/06/17 05:34:15;;;;;;;13.18;10.88;;;;;;;15.32;100.00;164571.03;5070628;28;20016;-60
2022/06/17 05:36:41;;;;;;;12.10;10.90;;;;;;;15.48;100.00;164614.34;5069224;28;20051;-61
2022/06/17 05:39:06;;;;;;;15.52;10.27;;;;;;;15.73;100.00;164679.38;5069777;28;20358;-61
2022/06/17 05:41:32;;;;;;;19.05;12.35;;;;;;;16.03;100.00;164757.94;5069543;28;20052;-61
2022/06/17 05:43:57;;;;;;;10.90;9.80;;;;;;;16.42;100.00;164860.84;5070790;28;20028;-61
2022/06/17 05:46:22;;;;;;;14.43;11.18;;;;;;;16.75;100.00;164947.56;5068742;28;20511;-61
2022/06/17 05:48:48;;;;;;;10.50;8.52;;;;;;;17.10;100.00;165039.72;5070594;28;20027;-61
2022/06/17 05:51:13;;;;;;;9.90;8.93;;;;;;;17.44;100.00;165129.19;5068424;28;20056;-61
2022/06/17 05:53:39;;;;;;;12.43;8.68;;;;;;;17.69;100.00;165194.22;5070257;28;20028;-61
2022/06/17 05:56:04;;;;;;;9.52;8.30;;;;;;;17.88;100.00;165244.38;5069047;28;20052;-61
2022/06/17 05:58:30;;;;;;;8.82;7.97;;;;;;;18.05;100.00;165289.22;5070676;28;20483;-61
2022/06/17 06:00:55;;;;;;;8.40;7.53;;;;;;;18.10;100.00;165300.03;5068552;28;20043;-61
2022/06/17 06:03:24;;;;;;;10.40;7.38;;;;;;;18.06;100.00;165290.53;5070320;28;20564;-60
2022/06/17 06:05:49;;;;;;;8.70;6.55;;;;;;;18.06;100.00;165290.53;5068261;28;20461;-61
2022/06/17 06:08:15;;;;;;;13.60;7.03;;;;;;;18.10;100.00;165300.03;5068197;28;20028;-61
2022/06/17 06:10:41;;;;;;;9.35;7.28;;;;;;;18.23;100.00;165335.28;5068935;28;20127;-61
2022/06/17 06:13:07;;;;;;;10.88;7.35;;;;;;;18.30;100.00;165352.91;5069486;28;20040;-62
2022/06/17 06:15:39;;;;;;;13.10;7.53;;;;;;;18.39;100.00;165377.34;5068444;28;20037;-63
2022/06/17 06:18:06;;;;;;;7.28;6.20;;;;;;;18.45;100.00;165392.22;5070160;28;20084;-62
2022/06/17 06:20:32;;;;;;;11.57;9.05;;;;;;;18.47;100.00;165399.00;5053935;28;20131;-62
2022/06/17 06:22:57;;;;;;;11.57;6.63;;;;;;;18.48;100.00;165401.72;5069132;28;20028;-62
2022/06/17 06:25:23;;;;;;;9.63;7.28;;;;;;;18.39;100.00;165378.66;5066548;28;20059;-62
2022/06/17 06:27:48;;;;;;;7.03;6.43;;;;;;;18.43;100.00;165386.81;5067959;28;20028;-62
2022/06/17 06:30:29;;;;;;;10.40;7.03;;;;;;;18.52;100.00;165411.19;5067000;28;20084;-61
2022/06/17 06:32:58;;;;;;;7.65;7.05;;;;;;;18.68;100.00;165454.59;5069574;28;20065;-62
2022/06/17 06:35:26;;;;;;;9.88;6.68;;;;;;;18.96;100.00;165527.88;5069750;28;20709;-62
2022/06/17 06:37:52;;;;;;;6.82;6.20;;;;;;;19.23;100.00;165598.44;5067593;28;20504;-62
2022/06/17 06:40:18;;;;;;;9.43;6.53;;;;;;;19.42;100.00;165648.66;5069344;28;20025;-63
2022/06/17 06:42:47;;;;;;;10.13;6.43;;;;;;;19.57;100.00;165687.97;5068353;28;20048;-63
2022/06/17 06:45:16;;;;;;;7.05;5.07;;;;;;;19.70;100.00;165720.53;5069353;28;20016;-63
2022/06/17 06:47:42;;;;;;;9.73;5.88;;;;;;;19.74;100.00;165731.41;5068660;28;20518;-63
2022/06/17 06:50:13;;;;;;;9.27;6.53;;;;;;;19.88;100.00;165768.13;5070006;28;20109;-63
2022/06/17 06:52:38;;;;;;;8.40;6.55;;;;;;;20.02;100.00;165806.09;5071829;28;20049;-63
2022/06/17 06:55:04;;;;;;;8.23;6.47;;;;;;;20.15;100.00;165838.66;5072918;28;20116;-63
2022/06/17 06:57:30;;;;;;;7.75;4.95;;;;;;;20.43;100.00;165913.34;5072117;28;20407;-63
2022/06/17 06:59:59;;;;;;;11.60;4.38;;;;;;;20.76;100.00;166000.25;5073267;28;20016;-63
2022/06/17 07:02:25;;;;;;;12.25;5.13;;;;;;;20.98;100.00;166058.66;5072284;28;20044;-63
2022/06/17 07:04:50;;;;;;;7.30;4.40;;;;;;;21.20;100.00;166117.00;5073597;28;20016;-63
2022/06/17 07:07:15;;;;;;;6.90;4.05;;;;;;;21.38;100.00;166164.53;5068423;28;20052;-63
2022/06/17 07:09:41;;;;;;;12.70;4.63;;;;;;;21.65;100.00;166233.84;5071810;28;20095;-63
2022/06/17 07:12:07;;;;;;;7.25;4.43;;;;;;;21.84;100.00;166285.50;5071772;28;20210;-63
2022/06/17 07:14:32;;;;;;;10.10;5.47;;;;;;;22.17;100.00;166372.44;5072975;28;20028;-63
2022/06/17 07:16:57;;;;;;;8.65;4.15;;;;;;;22.48;100.00;166454.00;5071408;28;20499;-63
2022/06/17 07:19:23;;;;;;;10.23;4.45;;;;;;;22.39;100.00;166429.53;5073019;28;20040;-63
2022/06/17 07:21:48;;;;;;;18.83;5.15;;;;;;;22.29;100.00;166402.34;5070755;28;20052;-61
2022/06/17 07:24:15;;;;;;;7.35;4.10;;;;;;;22.41;100.00;166433.66;5072531;28;20033;-63
2022/06/17 07:26:41;;;;;;;8.77;4.50;;;;;;;22.38;100.00;166426.75;5071172;28;20046;-63
2022/06/17 07:29:08;;;;;;;8.90;4.30;;;;;;;22.40;100.00;166432.28;5072361;28;20107;-61
2022/06/17 07:31:34;;;;;;;12.90;4.05;;;;;;;22.43;100.00;166440.44;5071210;28;20037;-61
2022/06/17 07:33:59;;;;;;;11.00;4.22;;;;;;;22.16;100.00;166368.38;5066452;28;20035;-56
2022/06/17 07:41:58;;;;;;;9.65;4.30;;;;;;;21.96;100.00;166315.38;5070549;28;20055;-57
2022/06/17 07:44:24;;;;;;;7.85;3.65;;;;;;;22.00;100.00;166326.28;5066451;28;20020;-56
2022/06/17 07:46:49;;;;;;;9.82;3.80;;;;;;;22.09;100.00;166350.69;5069722;28;20380;-56
2022/06/17 07:49:15;;;;;;;6.88;3.40;;;;;;;22.31;100.00;166407.75;5072386;28;20038;-58
2022/06/17 07:51:40;;;;;;;12.85;4.18;;;;;;;22.59;100.00;166481.22;5069345;28;20476;-58
2022/06/17 07:54:06;;;;;;;10.23;4.05;;;;;;;22.88;100.00;166557.31;5072162;28;20029;-58
2022/06/17 07:56:31;;;;;;;9.65;4.25;;;;;;;22.92;100.00;166568.16;5071370;28;20045;-58
2022/06/17 07:58:56;;;;;;;13.50;4.65;;;;;;;23.09;100.00;166614.38;5072172;28;20491;-58
2022/06/17 08:01:22;;;;;;;8.55;3.75;;;;;;;23.07;100.00;166608.94;5070894;28;20040;-58
2022/06/17 08:03:47;;;;;;;10.18;2.78;;;;;;;23.14;100.00;166626.63;5072398;28;20074;-58
2022/06/17 08:06:14;;;;;;;11.80;4.50;;;;;;;23.48;100.00;166715.03;5071238;28;20525;-58
2022/06/17 08:08:40;;;;;;;4.18;3.35;;;;;;;23.88;100.00;166821.06;5072749;28;20033;-58
2022/06/17 08:11:06;;;;;;;9.30;3.97;;;;;;;24.23;100.00;166913.63;5070992;28;20120;-58
2022/06/17 08:13:32;;;;;;;16.20;3.65;;;;;;;24.55;100.00;166997.94;5071919;28;20028;-59
2022/06/17 08:16:00;;;;;;;10.80;4.53;;;;;;;24.74;100.00;167046.97;5071047;28;20333;-58
2022/06/17 08:18:25;;;;;;;;;;;;;;;24.88;100.00;167085.06;5072749;28;20051;-58
2022/06/17 08:20:51;;;;;;;4.82;2.28;;;;;;;24.93;100.00;167097.31;5070169;28;19912;-58
2022/06/17 08:23:17;;;;;;;9.93;3.80;;;;;;;24.79;100.00;167060.56;5072372;28;20027;-58
2022/06/17 08:25:43;;;;;;;10.30;3.72;;;;;;;24.80;99.25;167063.28;5070715;28;20131;-58
2022/06/17 08:28:10;;;;;;;7.50;3.03;;;;;;;24.71;100.00;167041.50;5072077;28;20067;-57
2022/06/17 08:30:39;;;;;;;6.45;3.47;;;;;;;24.64;100.00;167022.44;5070442;28;20042;-56
2022/06/17 08:33:05;;;;;;;4.25;2.72;;;;;;;24.41;100.00;166961.22;5072053;28;20029;-56
2022/06/17 08:35:37;;;;;;;6.40;2.38;;;;;;;24.19;100.00;166902.72;5070397;28;20036;-56
2022/06/17 08:38:19;;;;;;;4.00;3.47;;;;;;;24.19;100.00;166904.13;5071426;28;20075;-56
2022/06/17 08:40:48;;;;;;;6.53;2.75;;;;;;;24.01;100.00;166855.13;5070460;28;20403;-56
2022/06/17 08:43:51;;;;;;;8.50;2.80;;;;;;;24.18;100.00;166900.00;5071689;28;20040;-56
2022/06/17 08:46:48;;;;;;;8.73;3.30;;;;;;;24.47;100.00;166977.53;5070228;28;20519;-56
2022/06/17 08:49:44;;;;;;;6.82;2.63;;;;;;;24.66;96.31;167027.94;5071354;28;20039;-58
2022/06/17 08:52:33;;;;;;;8.05;3.38;;;;;;;24.95;98.16;167102.72;5069717;28;20044;-59
2022/06/17 08:55:18;;;;;;;7.53;3.63;;;;;;;25.07;94.88;167134.00;5069998;28;20349;-59
2022/06/17 08:57:57;;;;;;;14.48;4.45;;;;;;;25.31;97.47;167199.34;5071336;28;20079;-58
2022/06/17 09:00:34;;;;;;;3.13;2.13;;;;;;;25.46;96.31;167237.50;5070213;28;20447;-58
2022/06/17 09:03:12;;;;;;;5.78;2.75;;;;;;;25.80;97.14;167327.34;5071365;28;20028;-58
2022/06/17 09:06:20;;;;;;;5.22;3.35;;;;;;;25.93;91.90;167361.34;5069570;28;20102;-59
2022/06/17 09:09:01;;;;;;;6.07;2.72;;;;;;;26.23;91.66;167441.72;5070139;28;20539;-58
2022/06/17 09:11:44;;;;;;;5.65;2.35;;;;;;;26.59;86.23;167537.00;5067788;28;20041;-56
2022/06/17 09:14:40;;;;;;;9.02;2.40;;;;;;;26.86;78.10;167607.84;5068072;28;20060;-57
2022/06/17 09:17:27;;;;;;;4.72;2.50;;;;;;;26.92;77.76;167622.84;5066403;28;20037;-57
2022/06/17 09:19:59;;;;;;;3.55;2.10;;;;;;;27.20;77.79;167696.38;5068446;28;20088;-57
2022/06/17 09:22:33;;;;;;;4.85;2.53;;;;;;;27.08;75.54;167665.03;5070270;28;20101;-57
2022/06/17 09:25:14;;;;;;;5.68;2.97;;;;;;;26.85;75.64;167603.78;5068161;28;20443;-57
2022/06/17 09:27:44;;;;;;;3.33;2.45;;;;;;;26.67;74.59;167556.06;5056736;28;20032;-58
2022/06/17 09:30:33;;;;;;;4.78;2.85;;;;;;;26.91;75.19;167621.50;5068893;28;20628;-58
2022/06/17 09:33:17;;;;;;;8.93;2.50;;;;;;;27.20;76.82;167697.75;5069778;28;20060;-58
2022/06/17 09:35:59;;;;;;;4.13;2.58;;;;;;;27.55;72.85;167790.41;5067449;28;20049;-58
2022/06/17 09:38:34;;;;;;;6.88;2.38;;;;;;;26.99;72.13;167640.56;5070703;28;20020;-58
2022/06/17 09:41:18;;;;;;;4.80;2.35;;;;;;;26.95;75.15;167629.63;5053886;28;20087;-58
2022/06/17 09:44:03;;;;;;;8.13;2.08;;;;;;;26.89;74.98;167616.03;5066429;28;20017;-57
2022/06/17 09:46:41;;;;;;;11.82;3.58;;;;;;;26.96;73.99;167632.38;5068991;28;20051;-58
2022/06/17 09:49:29;;;;;;;13.15;3.80;;;;;;;26.95;73.27;167629.63;5069737;28;20483;-57
2022/06/17 09:52:13;;;;;;;;;;;;;;;26.90;72.86;167617.38;5069254;28;20047;-58
2022/06/17 09:54:50;;;;;;;6.32;3.75;;;;;;;26.98;73.59;167639.16;5056358;28;20379;-59
2022/06/17 09:57:22;;;;;;;8.30;3.53;;;;;;;27.04;73.45;167655.50;5068936;28;20043;-60
2022/06/17 09:59:57;;;;;;;4.00;3.10;;;;;;;27.11;71.44;167671.84;5070398;28;20020;-60
2022/06/17 10:02:40;;;;;;;8.32;2.60;;;;;;;27.08;76.29;167665.03;5048833;28;20109;-57
2022/06/17 10:05:24;;;;;;;7.40;3.45;;;;;;;27.06;73.14;167659.63;5049274;28;20024;-58
2022/06/17 10:08:13;;;;;;;7.90;3.30;;;;;;;27.34;74.10;167733.16;5066521;28;20054;-58
2022/06/17 10:10:51;;;;;;;5.10;2.60;;;;;;;27.53;71.30;167783.59;5068069;28;20044;-58
2022/06/17 10:13:37;;;;;;;6.03;3.05;;;;;;;27.48;70.79;167771.34;5069880;28;20024;-58
2022/06/17 10:19:37;;;;;;;9.65;4.47;;;;;;;27.13;70.03;167678.69;5069387;28;20419;-59
2022/06/17 10:22:47;;;;;;;12.38;3.80;;;;;;;27.28;68.46;167718.16;5067841;28;20042;-58
2022/06/17 10:25:27;;;;;;;6.00;3.05;;;;;;;27.31;69.81;167726.34;5058449;28;20064;-58
2022/06/17 10:28:18;;;;;;;8.70;3.00;;;;;;;27.41;68.47;167752.22;5071267;28;20107;-58
2022/06/17 10:30:56;;;;;;;10.80;2.55;;;;;;;27.53;69.17;167784.94;5071207;28;20511;-58
2022/06/17 10:33:23;;;;;;;7.78;2.80;;;;;;;27.59;67.70;167798.59;5073803;28;20020;-59
2022/06/17 10:35:49;;;;;;;11.85;3.20;;;;;;;27.60;66.33;167801.28;5070364;28;20514;-58
2022/06/17 10:38:23;;;;;;;9.43;3.63;;;;;;;27.51;71.10;167779.53;5073623;28;20020;-58
2022/06/17 10:40:49;;;;;;;10.20;3.30;;;;;;;27.59;69.79;167798.59;5071268;28;20040;-58
2022/06/17 10:43:19;;;;;;;6.05;2.90;;;;;;;27.75;67.05;167842.16;5073450;28;20039;-58
2022/06/17 10:45:44;;;;;;;5.43;2.25;;;;;;;27.98;65.66;167903.47;5072082;28;20046;-58
2022/06/17 10:48:32;;;;;;;10.30;3.33;;;;;;;28.29;64.08;167983.91;5073702;28;20434;-59
2022/06/17 10:51:00;;;;;;;6.60;3.08;;;;;;;28.20;64.88;167959.38;5071952;28;20116;-59
2022/06/17 10:53:38;;;;;;;5.90;3.53;;;;;;;28.16;65.29;167951.22;5073997;28;20395;-59
2022/06/17 10:56:11;;;;;;;6.15;3.80;;;;;;;28.58;62.69;168060.19;5071697;28;20146;-59
2022/06/17 10:58:37;;;;;;;12.95;4.00;;;;;;;28.75;62.43;168105.22;5073301;28;20036;-58
2022/06/17 11:01:15;;;;;;;4.00;3.13;;;;;;;28.78;63.88;168113.41;5071837;28;20044;-59
2022/06/17 11:03:43;;;;;;;54.13;5.68;;;;;;;28.76;61.27;168107.94;5073415;28;20028;-59
2022/06/17 11:06:08;;;;;;;11.05;4.10;;;;;;;28.62;61.28;168071.13;5072038;28;20127;-58
2022/06/17 11:08:41;;;;;;;3.65;2.97;;;;;;;28.11;59.98;167937.56;5073004;28;20101;-59
2022/06/17 11:13:58;;;;;;;7.55;3.05;;;;;;;27.95;63.29;167893.94;5073003;28;20044;-59
2022/06/17 11:16:26;;;;;;;7.30;3.17;;;;;;;28.11;60.89;167937.56;5071554;28;20044;-59
2022/06/17 11:19:06;;;;;;;5.28;3.08;;;;;;;27.78;63.86;167850.34;5072278;28;20020;-58
2022/06/17 11:21:37;;;;;;;16.98;3.92;;;;;;;27.67;63.63;167820.34;5071237;28;20047;-59
2022/06/17 11:24:05;;;;;;;8.55;3.17;;;;;;;28.02;62.74;167913.03;5073263;28;20122;-57
2022/06/17 11:26:35;;;;;;;9.60;3.45;;;;;;;28.01;59.92;167910.28;5069338;28;20102;-58
2022/06/17 11:29:05;;;;;;;7.10;2.72;;;;;;;28.16;61.77;167951.22;5072221;28;20446;-57
2022/06/17 11:31:40;;;;;;;13.25;3.45;;;;;;;28.09;59.74;167932.13;5070620;28;20618;-57
2022/06/17 11:34:15;;;;;;;5.72;2.47;;;;;;;28.12;60.80;167940.28;5072889;28;20107;-57
2022/06/17 11:36:55;;;;;;;11.43;3.28;;;;;;;27.99;60.07;167904.81;5070031;28;20094;-57
2022/06/17 11:39:31;;;;;;;7.97;4.05;;;;;;;28.20;59.50;167959.38;5073251;28;20080;-57
2022/06/17 11:41:57;;;;;;;10.50;3.65;;;;;;;28.10;60.49;167934.88;5070625;28;20392;-57
2022/06/17 11:44:24;;;;;;;8.43;3.22;;;;;;;28.14;60.44;167945.75;5073232;28;20541;-57
2022/06/17 11:46:52;;;;;;;7.97;3.17;;;;;;;28.29;59.88;167983.91;5070860;28;20060;-57